createdAt,value
2022-12-06T00:00:30.404Z,81.40
2022-12-06T00:03:17.194Z,81.06
2022-12-06T00:06:04.296Z,81.75
2022-12-06T00:08:51.068Z,80.91
2022-12-06T00:11:42.243Z,80.68
2022-12-06T00:14:28.994Z,81.29
2022-12-06T00:17:15.781Z,80.65
2022-12-06T00:20:02.757Z,80.64
2022-12-06T00:22:49.767Z,81.14
2022-12-06T00:25:36.572Z,80.85
2022-12-06T00:28:23.331Z,81.26
2022-12-06T00:31:10.069Z,80.79
2022-12-06T00:33:57.425Z,81.40
2022-12-06T00:36:46.984Z,81.32
2022-12-06T00:39:36.697Z,81.62
2022-12-06T00:42:23.509Z,81.37
2022-12-06T00:45:10.263Z,80.49
2022-12-06T00:47:57.028Z,80.94
2022-12-06T00:50:43.799Z,81.97
2022-12-06T00:53:30.555Z,81.46
2022-12-06T00:56:17.309Z,81.49
2022-12-06T00:59:04.493Z,81.67
2022-12-06T01:01:52.605Z,80.89
2022-12-06T01:04:39.438Z,81.54
2022-12-06T01:07:26.193Z,80.66
2022-12-06T01:10:12.996Z,81.78
2022-12-06T01:12:59.778Z,81.96
2022-12-06T01:15:46.522Z,81.83
2022-12-06T01:18:33.327Z,81.07
2022-12-06T01:21:28.666Z,81.57
2022-12-06T01:24:15.494Z,81.35
2022-12-06T01:27:02.262Z,81.37
2022-12-06T01:29:49.112Z,81.06
2022-12-06T01:32:35.893Z,80.63
2022-12-06T01:35:22.678Z,81.83
2022-12-06T01:38:09.434Z,81.98
2022-12-06T01:41:02.061Z,80.80
2022-12-06T01:43:49.656Z,81.09
2022-12-06T01:46:56.874Z,80.96
2022-12-06T01:49:49.805Z,81.59
2022-12-06T01:52:38.082Z,81.08
2022-12-06T01:55:27.971Z,80.79
2022-12-06T01:58:20.159Z,81.59
2022-12-06T02:01:06.930Z,82.10
2022-12-06T02:03:54.186Z,81.95
2022-12-06T02:06:41.351Z,82.19
2022-12-06T02:09:30.193Z,81.40
2022-12-06T02:12:17.012Z,81.45
2022-12-06T02:15:09.074Z,81.47
2022-12-06T02:18:01.887Z,81.41
2022-12-06T02:21:07.069Z,81.02
2022-12-06T02:24:20.974Z,81.34
2022-12-06T02:27:10.219Z,81.81
2022-12-06T02:30:09.102Z,81.00
2022-12-06T02:33:05.807Z,80.83
2022-12-06T02:36:10.173Z,81.85
2022-12-06T02:39:07.374Z,80.70
2022-12-06T02:41:58.818Z,81.47
2022-12-06T02:44:52.289Z,81.15
2022-12-06T02:47:43.681Z,81.46
2022-12-06T02:50:38.769Z,80.50
2022-12-06T02:53:29.442Z,80.53
2022-12-06T02:56:17.174Z,81.58
2022-12-06T02:59:04.702Z,81.75
2022-12-06T03:01:54.659Z,81.91
2022-12-06T03:04:59.461Z,81.20
2022-12-06T03:07:58.552Z,81.29
2022-12-06T03:11:00.910Z,81.79
2022-12-06T03:13:57.029Z,80.48
2022-12-06T03:16:47.993Z,80.45
2022-12-06T03:19:47.477Z,81.41
2022-12-06T03:22:49.802Z,80.80
2022-12-06T03:25:37.155Z,80.46
2022-12-06T03:28:26.869Z,81.05
2022-12-06T03:31:20.604Z,80.50
2022-12-06T03:34:13.466Z,80.58
2022-12-06T03:37:03.117Z,81.24
2022-12-06T03:39:59.611Z,81.16
2022-12-06T03:42:47.385Z,81.09
2022-12-06T03:45:34.727Z,80.49
2022-12-06T03:49:00.701Z,80.72
2022-12-06T03:51:53.499Z,81.07
2022-12-06T03:54:40.336Z,80.26
2022-12-06T03:57:27.227Z,81.14
2022-12-06T04:00:13.995Z,80.97
2022-12-06T04:03:00.732Z,81.45
2022-12-06T04:05:47.493Z,81.56
2022-12-06T04:08:34.245Z,81.10
2022-12-06T04:11:21.048Z,81.21
2022-12-06T04:14:07.799Z,81.44
2022-12-06T04:16:54.167Z,80.48
2022-12-06T04:19:40.940Z,80.86
2022-12-06T04:22:26.425Z,81.45
2022-12-06T04:25:13.388Z,80.31
2022-12-06T04:27:58.498Z,80.51
2022-12-06T04:30:44.288Z,80.51
2022-12-06T04:33:29.453Z,80.53
2022-12-06T04:36:15.498Z,80.72
2022-12-06T04:39:02.446Z,80.27
2022-12-06T04:41:48.345Z,81.22
2022-12-06T04:44:35.282Z,80.36
2022-12-06T04:47:23.130Z,80.91
2022-12-06T04:50:10.201Z,80.48
2022-12-06T04:52:56.950Z,80.91
2022-12-06T04:55:43.700Z,80.01
2022-12-06T04:58:30.424Z,80.88
2022-12-06T05:01:17.236Z,80.41
2022-12-06T05:04:04.101Z,81.20
2022-12-06T05:06:50.930Z,79.86
2022-12-06T05:09:37.694Z,80.74
2022-12-06T05:12:24.661Z,80.77
2022-12-06T05:15:14.598Z,80.60
2022-12-06T05:18:02.687Z,80.80
2022-12-06T05:20:49.413Z,80.83
2022-12-06T05:23:36.912Z,80.08
2022-12-06T05:26:27.730Z,80.69
2022-12-06T05:29:14.983Z,80.93
2022-12-06T05:32:01.809Z,81.09
2022-12-06T05:34:48.704Z,80.17
2022-12-06T05:37:35.528Z,79.77
2022-12-06T05:40:22.320Z,80.10
2022-12-06T05:43:09.189Z,79.89
2022-12-06T05:45:57.187Z,80.85
2022-12-06T05:48:44.275Z,80.17
2022-12-06T05:51:31.131Z,80.67
2022-12-06T05:54:17.891Z,80.15
2022-12-06T05:57:04.749Z,81.10
2022-12-06T05:59:51.725Z,79.93
2022-12-06T06:02:38.541Z,80.66
2022-12-06T06:05:25.727Z,80.57
2022-12-06T06:08:12.641Z,80.55
2022-12-06T06:10:59.452Z,80.58
2022-12-06T06:13:46.650Z,79.99
2022-12-06T06:16:33.399Z,80.21
2022-12-06T06:19:20.346Z,80.02
2022-12-06T06:22:07.118Z,80.40
2022-12-06T06:24:58.705Z,79.55
2022-12-06T06:27:45.776Z,79.77
2022-12-06T06:30:33.023Z,80.78
2022-12-06T06:33:19.864Z,80.95
2022-12-06T06:36:06.697Z,80.76
2022-12-06T06:38:53.575Z,80.96
2022-12-06T06:41:40.408Z,80.88
2022-12-06T06:44:27.269Z,80.85
2022-12-06T06:47:14.074Z,80.91
2022-12-06T06:50:01.224Z,79.57
2022-12-06T06:52:48.276Z,81.04
2022-12-06T06:55:35.136Z,80.29
2022-12-06T06:58:22.465Z,80.79
2022-12-06T07:01:17.363Z,79.65
2022-12-06T07:04:04.256Z,80.18
2022-12-06T07:06:51.217Z,80.90
2022-12-06T07:09:18.211Z,79.78
2022-12-06T07:11:45.416Z,80.82
2022-12-06T07:14:32.274Z,79.80
2022-12-06T07:17:19.221Z,80.42
2022-12-06T07:20:06.060Z,80.57
2022-12-06T07:22:52.916Z,81.31
2022-12-06T07:25:39.749Z,81.27
2022-12-06T07:28:26.988Z,80.33
2022-12-06T07:31:13.858Z,80.02
2022-12-06T07:34:01.448Z,80.83
2022-12-06T07:36:52.384Z,80.02
2022-12-06T07:39:39.237Z,80.17
2022-12-06T07:42:24.935Z,80.58
2022-12-06T07:45:22.316Z,80.80
2022-12-06T07:48:09.143Z,80.64
2022-12-06T07:50:55.956Z,80.05
2022-12-06T07:53:42.797Z,80.41
2022-12-06T07:56:29.707Z,80.71
2022-12-06T07:59:16.505Z,80.90
2022-12-06T08:02:04.021Z,80.76
2022-12-06T08:04:51.254Z,80.00
2022-12-06T08:07:38.270Z,81.08
2022-12-06T08:10:25.941Z,80.53
2022-12-06T08:13:13.412Z,80.57
2022-12-06T08:16:00.345Z,80.67
2022-12-06T08:18:47.182Z,80.19
2022-12-06T08:21:33.997Z,80.18
2022-12-06T08:24:20.853Z,80.40
2022-12-06T08:27:08.154Z,80.45
2022-12-06T08:29:55.098Z,80.96
2022-12-06T08:32:42.148Z,80.82
2022-12-06T08:35:29.084Z,80.16
2022-12-06T08:38:15.998Z,80.34
2022-12-06T08:41:03.255Z,80.60
2022-12-06T08:43:51.662Z,81.25
2022-12-06T08:46:38.549Z,81.28
2022-12-06T08:49:25.922Z,80.52
2022-12-06T08:52:13.374Z,81.41
2022-12-06T08:55:00.277Z,81.46
2022-12-06T08:57:47.100Z,80.78
2022-12-06T09:00:34.666Z,80.53
2022-12-06T09:03:21.929Z,80.60
2022-12-06T09:06:08.743Z,80.92
2022-12-06T09:08:56.529Z,81.30
2022-12-06T09:11:43.351Z,80.79
2022-12-06T09:14:35.055Z,80.63
2022-12-06T09:17:21.874Z,80.93
2022-12-06T09:20:08.919Z,81.34
2022-12-06T09:22:55.957Z,80.98
2022-12-06T09:25:42.795Z,80.53
2022-12-06T09:28:30.969Z,81.44
2022-12-06T09:31:18.178Z,81.31
2022-12-06T09:34:05.539Z,80.70
2022-12-06T09:36:52.455Z,81.28
2022-12-06T09:39:45.591Z,81.38
2022-12-06T09:42:44.551Z,81.02
2022-12-06T09:45:55.309Z,80.98
2022-12-06T09:49:04.194Z,81.37
2022-12-06T09:52:13.923Z,81.17
2022-12-06T09:55:23.449Z,81.19
2022-12-06T09:58:52.172Z,80.79
2022-12-06T10:01:53.956Z,80.70
2022-12-06T10:04:46.465Z,81.30
2022-12-06T10:07:44.323Z,80.75
2022-12-06T10:10:34.012Z,81.10
2022-12-06T10:13:46.923Z,81.23
2022-12-06T10:17:01.792Z,80.77
2022-12-06T10:20:08.740Z,80.81
2022-12-06T10:22:55.528Z,80.86
2022-12-06T10:25:46.844Z,81.05
2022-12-06T10:28:40.280Z,80.82
2022-12-06T10:31:43.139Z,81.03
2022-12-06T10:34:45.813Z,80.86
2022-12-06T10:38:08.249Z,80.73
2022-12-06T10:41:11.465Z,81.08
2022-12-06T10:44:03.472Z,80.73
2022-12-06T10:47:00.853Z,80.64
2022-12-06T10:49:47.698Z,80.92
2022-12-06T10:53:01.689Z,80.49
2022-12-06T10:55:59.652Z,80.29
2022-12-06T10:59:06.709Z,80.46
2022-12-06T11:01:59.484Z,80.45
2022-12-06T11:04:52.210Z,80.71
2022-12-06T11:07:45.614Z,80.39
2022-12-06T11:10:43.201Z,80.84
2022-12-06T11:13:38.138Z,80.89
2022-12-06T11:16:38.479Z,80.27
2022-12-06T11:19:56.421Z,80.53
2022-12-06T11:22:46.044Z,80.46
2022-12-06T11:25:41.640Z,80.71
2022-12-06T11:28:31.441Z,80.70
2022-12-06T11:31:18.567Z,80.30
2022-12-06T11:34:05.740Z,80.44
2022-12-06T11:36:59.610Z,80.69
2022-12-06T11:39:48.729Z,80.98
2022-12-06T11:42:40.871Z,80.39
2022-12-06T11:45:38.694Z,80.34
2022-12-06T11:48:36.793Z,80.86
2022-12-06T11:51:23.834Z,80.46
2022-12-06T11:54:20.869Z,80.77
2022-12-06T11:57:08.058Z,80.40
2022-12-06T11:59:54.912Z,80.01
2022-12-06T12:02:51.821Z,80.47
2022-12-06T12:05:42.293Z,80.19
2022-12-06T12:08:39.936Z,80.16
2022-12-06T12:11:26.852Z,80.39
2022-12-06T12:14:20.416Z,80.01
2022-12-06T12:17:10.334Z,80.27
2022-12-06T12:20:06.296Z,80.14
2022-12-06T12:23:00.456Z,80.09
2022-12-06T12:25:55.297Z,79.86
2022-12-06T12:28:46.299Z,79.97
2022-12-06T12:31:44.162Z,80.04
2022-12-06T12:34:42.913Z,80.04
2022-12-06T12:37:40.859Z,80.01
2022-12-06T12:40:43.391Z,79.76
2022-12-06T12:43:32.920Z,79.90
2022-12-06T12:46:25.502Z,80.13
2022-12-06T12:49:12.428Z,80.00
2022-12-06T12:51:59.720Z,79.85
2022-12-06T12:54:53.452Z,80.13
2022-12-06T12:57:40.269Z,79.73
2022-12-06T14:32:23.682Z,79.14
2022-12-06T14:35:10.467Z,79.51
2022-12-06T14:37:57.875Z,79.33
2022-12-06T14:40:58.668Z,79.50
2022-12-06T14:43:48.554Z,79.18
2022-12-06T14:46:37.455Z,79.41
2022-12-06T14:49:23.048Z,79.50
2022-12-06T14:52:10.876Z,79.09
2022-12-06T14:55:04.716Z,79.52
2022-12-06T14:57:52.736Z,79.43
2022-12-06T15:00:42.347Z,79.04
2022-12-06T15:03:29.405Z,79.42
2022-12-06T15:06:37.005Z,79.23
2022-12-06T15:09:32.935Z,79.12
2022-12-06T15:12:40.872Z,79.09
2022-12-06T15:15:58.966Z,79.22
2022-12-06T15:18:51.968Z,78.98
2022-12-06T15:21:38.804Z,79.20
2022-12-06T15:24:36.347Z,78.68
2022-12-06T15:27:23.223Z,78.91
2022-12-06T15:30:10.440Z,79.12
2022-12-06T15:32:57.385Z,78.77
2022-12-06T15:35:44.259Z,79.00
2022-12-06T15:38:31.587Z,78.96
2022-12-06T15:41:18.539Z,78.65
2022-12-06T15:44:05.562Z,78.99
2022-12-06T15:46:55.268Z,79.00
2022-12-06T15:49:48.421Z,78.67
2022-12-06T15:52:38.277Z,78.24
2022-12-06T15:55:25.600Z,78.46
2022-12-06T15:58:12.425Z,78.50
2022-12-06T16:00:59.264Z,78.74
2022-12-06T16:03:46.107Z,78.17
2022-12-06T16:06:34.839Z,78.18
2022-12-06T16:09:21.622Z,78.10
2022-12-06T16:12:08.589Z,78.36
2022-12-06T16:14:55.344Z,78.46
2022-12-06T16:17:22.144Z,78.31
2022-12-06T16:20:07.531Z,78.59
2022-12-06T16:22:52.659Z,78.32
2022-12-06T16:25:39.531Z,78.23
2022-12-06T16:28:26.315Z,77.79
2022-12-06T16:31:13.499Z,77.50
2022-12-06T16:34:00.364Z,77.57
2022-12-06T16:36:49.301Z,77.65
2022-12-06T16:39:36.058Z,78.11
2022-12-06T16:42:26.006Z,78.03
2022-12-06T16:45:12.767Z,78.04
2022-12-06T16:47:59.755Z,77.22
2022-12-06T16:50:46.999Z,78.11
2022-12-06T16:53:37.671Z,78.26
2022-12-06T16:56:24.789Z,77.71
2022-12-06T16:59:11.550Z,77.89
2022-12-06T17:02:13.416Z,77.83
2022-12-06T17:05:00.549Z,77.96
2022-12-06T17:07:48.231Z,77.92
2022-12-06T17:10:35.227Z,77.39
2022-12-06T17:13:22.040Z,77.99
2022-12-06T17:16:08.825Z,77.29
2022-12-06T17:18:55.615Z,77.75
2022-12-06T17:21:42.481Z,77.34
2022-12-06T17:24:29.710Z,77.64
2022-12-06T17:27:16.483Z,77.37
2022-12-06T17:30:03.847Z,77.08
2022-12-06T17:32:50.634Z,76.92
2022-12-06T17:35:37.500Z,77.21
2022-12-06T17:38:24.278Z,77.00
2022-12-06T17:41:11.026Z,77.84
2022-12-06T17:43:57.774Z,77.16
2022-12-06T17:46:44.510Z,77.96
2022-12-06T17:49:37.299Z,76.85
2022-12-06T17:52:25.321Z,77.42
2022-12-06T17:55:12.103Z,76.85
2022-12-06T17:57:58.882Z,77.75
2022-12-06T18:00:45.802Z,76.60
2022-12-06T18:03:35.122Z,76.72
2022-12-06T18:06:21.886Z,76.57
2022-12-06T18:09:09.185Z,77.51
2022-12-06T18:11:56.718Z,77.03
2022-12-06T18:14:43.636Z,76.98
2022-12-06T18:17:31.050Z,77.45
2022-12-06T18:20:17.826Z,76.54
2022-12-06T18:23:04.561Z,76.65
2022-12-06T18:25:51.419Z,76.64
2022-12-06T18:28:38.168Z,76.91
2022-12-06T18:31:25.232Z,76.68
2022-12-06T18:34:12.770Z,76.47
2022-12-06T18:36:59.726Z,76.58
2022-12-06T18:39:46.564Z,76.95
2022-12-06T18:42:33.359Z,77.07
2022-12-06T18:45:20.113Z,76.31
2022-12-06T18:48:06.858Z,76.99
2022-12-06T18:50:53.653Z,77.38
2022-12-06T18:53:40.679Z,76.74
2022-12-06T18:56:29.769Z,77.09
2022-12-06T18:59:27.304Z,76.38
2022-12-06T19:01:54.600Z,76.98
2022-12-06T19:04:41.425Z,77.31
2022-12-06T19:07:28.321Z,76.29
2022-12-06T19:10:15.089Z,77.37
2022-12-06T19:13:05.860Z,76.72
2022-12-06T19:15:52.896Z,76.69
2022-12-06T19:18:39.681Z,77.45
2022-12-06T19:21:26.514Z,76.93
2022-12-06T19:24:14.983Z,77.27
2022-12-06T19:27:01.814Z,77.27
2022-12-06T19:29:49.578Z,77.47
2022-12-06T19:32:36.338Z,76.66
2022-12-06T19:35:23.225Z,77.33
2022-12-06T19:38:10.054Z,76.83
2022-12-06T19:41:01.068Z,77.04
2022-12-06T19:43:46.198Z,77.27
2022-12-06T19:46:36.056Z,76.46
2022-12-06T19:49:25.531Z,76.07
2022-12-06T19:52:12.570Z,76.64
2022-12-06T19:54:59.446Z,77.02
2022-12-06T19:57:46.237Z,76.31
2022-12-06T20:00:33.718Z,75.97
2022-12-06T20:03:20.486Z,76.13
2022-12-06T20:06:07.245Z,76.23
2022-12-06T20:08:55.020Z,76.95
2022-12-06T20:11:42.594Z,76.58
2022-12-06T20:14:32.108Z,76.35
2022-12-06T20:17:18.883Z,76.07
2022-12-06T20:20:06.343Z,76.30
2022-12-06T20:22:53.163Z,76.68
2022-12-06T20:25:39.922Z,76.21
2022-12-06T20:28:26.689Z,76.96
2022-12-06T20:31:13.615Z,76.84
2022-12-06T20:34:00.706Z,76.72
2022-12-06T20:36:48.780Z,76.55
2022-12-06T20:39:44.803Z,76.63
2022-12-06T20:42:31.578Z,76.99
2022-12-06T20:45:18.405Z,76.43
2022-12-06T20:48:11.481Z,76.09
2022-12-06T20:51:01.069Z,76.33
2022-12-06T20:53:47.939Z,77.00
2022-12-06T20:56:37.875Z,75.95
2022-12-06T20:59:26.454Z,76.61
2022-12-06T21:02:13.245Z,76.62
2022-12-06T21:05:00.518Z,75.98
2022-12-06T21:07:47.324Z,76.84
2022-12-06T21:10:34.265Z,76.63
2022-12-06T21:13:21.036Z,76.29
2022-12-06T21:16:07.914Z,76.60
2022-12-06T21:18:55.912Z,76.09
2022-12-06T21:21:46.263Z,75.89
2022-12-06T21:24:37.670Z,75.80
2022-12-06T21:27:24.486Z,76.00
2022-12-06T21:30:11.277Z,76.08
2022-12-06T21:32:58.042Z,76.02
2022-12-06T21:35:44.894Z,76.97
2022-12-06T21:38:32.298Z,75.60
2022-12-06T21:41:32.344Z,75.75
2022-12-06T21:44:22.473Z,75.78
2022-12-06T21:47:13.329Z,76.65
2022-12-06T21:50:00.346Z,75.79
2022-12-06T21:52:47.401Z,76.31
2022-12-06T21:55:34.201Z,75.98
2022-12-06T21:58:20.986Z,75.95
2022-12-06T22:01:07.863Z,76.00
2022-12-06T22:03:55.630Z,76.32
2022-12-06T22:06:42.969Z,76.89
2022-12-06T22:09:30.027Z,76.80
2022-12-06T22:12:16.953Z,75.58
2022-12-06T22:15:03.772Z,76.84
2022-12-06T22:17:50.581Z,75.51
2022-12-06T22:20:37.437Z,76.36
2022-12-06T22:23:24.219Z,76.34
2022-12-06T22:26:11.005Z,75.57
2022-12-06T22:28:57.767Z,75.90
2022-12-06T22:31:47.611Z,76.20
2022-12-06T22:34:34.399Z,75.94
2022-12-06T22:37:26.803Z,75.27
2022-12-06T22:40:15.208Z,76.52
2022-12-06T22:43:02.100Z,75.47
2022-12-06T22:45:48.851Z,76.44
2022-12-06T22:48:35.679Z,75.38
2022-12-06T22:51:57.599Z,76.38
2022-12-06T22:54:44.334Z,75.28
2022-12-06T22:57:31.053Z,76.10
2022-12-06T23:00:17.932Z,76.15
2022-12-06T23:03:04.701Z,76.19
2022-12-06T23:05:51.458Z,76.66
2022-12-06T23:08:38.240Z,76.25
2022-12-06T23:11:29.138Z,76.35
2022-12-06T23:14:16.971Z,76.50
2022-12-06T23:17:03.776Z,75.57
2022-12-06T23:19:50.529Z,76.65
2022-12-06T23:22:37.312Z,75.31
2022-12-06T23:25:24.400Z,75.64
2022-12-06T23:28:11.144Z,76.26
2022-12-06T23:30:57.906Z,75.29
2022-12-06T23:33:44.666Z,75.63
2022-12-06T23:36:52.724Z,75.72
2022-12-06T23:39:39.869Z,75.57
2022-12-06T23:42:26.596Z,75.75
2022-12-06T23:45:13.337Z,75.64
2022-12-06T23:48:00.071Z,75.67
2022-12-06T23:50:46.810Z,75.25
2022-12-06T23:53:33.565Z,76.43
2022-12-06T23:56:22.128Z,75.36
2022-12-06T23:59:10.328Z,76.10
